Time;durP1;ratioP1;P1;durP2;ratioP2;P2;SDS_P1;SDS_P2;PMS_P1;PMS_P2;Temp;Humidity;BMP_temperature;BMP_pressure;BME280_temperature;BME280_humidity;BME280_pressure;Samples;Min_cycle;Max_cycle;Signal;HPM_P1;HPM_P2
2022/03/29 00:00:56;;;;;;;38.93;22.23;;;;;;;;;;5111870;28;20043;-63
2022/03/29 00:03:22;;;;;;;42.83;22.07;;;;;;;;;;5111982;28;20054;-63
2022/03/29 00:05:48;;;;;;;44.60;24.10;;;;;;;;;;5110737;28;20091;-63
2022/03/29 00:08:14;;;;;;;43.77;23.63;;;;;;;;;;5103471;28;20056;-63
2022/03/29 00:10:41;;;;;;;48.93;24.60;;;;;;;;;;5096208;28;20036;-63
2022/03/29 00:13:07;;;;;;;43.33;23.73;;;;;;;;;;5111688;28;20420;-63
2022/03/29 00:15:33;;;;;;;42.30;24.03;;;;;;;;;;5111438;28;20485;-63
2022/03/29 00:17:59;;;;;;;40.30;23.20;;;;;;;;;;5111500;28;20048;-64
2022/03/29 00:20:25;;;;;;;43.10;21.53;;;;;;;;;;5093755;28;20040;-63
2022/03/29 00:22:51;;;;;;;44.53;23.90;;;;;;;;;;5073942;28;20109;-63
2022/03/29 00:25:18;;;;;;;43.13;22.37;;;;;;;;;;5091194;28;20082;-63
2022/03/29 00:27:44;;;;;;;45.67;22.37;;;;;;;;;;5091521;28;20098;-63
2022/03/29 00:30:11;;;;;;;37.03;20.97;;;;;;;;;;5091578;28;20055;-64
2022/03/29 00:32:39;;;;;;;36.37;20.47;;;;;;;;;;5091414;28;20139;-64
2022/03/29 00:35:06;;;;;;;34.87;20.03;;;;;;;;;;5091020;28;20059;-63
2022/03/29 00:37:32;;;;;;;35.63;20.23;;;;;;;;;;5091276;28;20420;-63
2022/03/29 00:39:58;;;;;;;37.43;19.23;;;;;;;;;;5090201;28;20040;-63
2022/03/29 00:42:24;;;;;;;36.93;20.30;;;;;;;;;;5091084;28;20786;-63
2022/03/29 00:44:50;;;;;;;40.57;20.87;;;;;;;;;;5090602;28;20064;-63
2022/03/29 00:47:16;;;;;;;36.03;19.00;;;;;;;;;;5094115;28;20733;-64
2022/03/29 00:49:42;;;;;;;44.43;20.97;;;;;;;;;;5095470;28;20044;-63
2022/03/29 00:52:09;;;;;;;40.23;21.37;;;;;;;;;;5090676;28;20139;-63
2022/03/29 00:54:36;;;;;;;39.33;22.33;;;;;;;;;;5090999;28;20071;-63
2022/03/29 00:57:03;;;;;;;36.93;21.37;;;;;;;;;;5104013;28;20516;-63
2022/03/29 00:59:30;;;;;;;42.33;21.73;;;;;;;;;;5090036;28;20423;-63
2022/03/29 01:01:57;;;;;;;37.20;21.83;;;;;;;;;;5090709;28;20048;-63
2022/03/29 01:04:23;;;;;;;39.40;21.50;;;;;;;;;;5090031;28;20082;-63
2022/03/29 01:06:50;;;;;;;45.13;23.57;;;;;;;;;;5090641;28;20040;-63
2022/03/29 01:09:16;;;;;;;42.47;24.00;;;;;;;;;;5090432;28;20040;-63
2022/03/29 01:11:42;;;;;;;40.63;24.70;;;;;;;;;;5090462;28;20379;-63
2022/03/29 01:14:08;;;;;;;35.83;21.07;;;;;;;;;;5089777;28;20574;-63
2022/03/29 01:19:21;;;;;;;36.93;22.23;;;;;;;;;;5090152;28;20525;-63
2022/03/29 01:21:52;;;;;;;29.20;19.23;;;;;;;;;;5089905;28;20148;-63
2022/03/29 01:24:18;;;;;;;29.47;17.87;;;;;;;;;;5090411;28;20058;-63
2022/03/29 01:26:45;;;;;;;30.43;18.50;;;;;;;;;;5089754;28;20047;-63
2022/03/29 01:29:11;;;;;;;31.63;18.50;;;;;;;;;;5089861;28;20047;-63
2022/03/29 01:31:38;;;;;;;27.47;17.73;;;;;;;;;;5090029;28;20028;-63
2022/03/29 01:34:05;;;;;;;27.53;18.30;;;;;;;;;;5104494;28;20035;-63
2022/03/29 01:36:31;;;;;;;32.83;18.63;;;;;;;;;;5109912;28;20044;-63
2022/03/29 01:38:57;;;;;;;29.97;19.37;;;;;;;;;;5109890;28;20050;-63
2022/03/29 01:41:23;;;;;;;29.70;19.03;;;;;;;;;;5108596;28;20074;-63
2022/03/29 01:43:49;;;;;;;30.77;17.70;;;;;;;;;;5103602;28;20391;-63
2022/03/29 01:46:15;;;;;;;29.00;18.83;;;;;;;;;;5098757;28;20040;-63
2022/03/29 01:48:41;;;;;;;29.73;18.13;;;;;;;;;;5109900;28;20046;-63
2022/03/29 01:51:07;;;;;;;32.00;20.33;;;;;;;;;;5109701;28;20493;-63
2022/03/29 01:53:33;;;;;;;31.97;20.37;;;;;;;;;;5109700;28;20078;-63
2022/03/29 01:56:00;;;;;;;33.40;19.60;;;;;;;;;;5109302;28;20039;-63
2022/03/29 01:58:27;;;;;;;30.30;18.20;;;;;;;;;;5099673;28;20089;-63
2022/03/29 02:00:53;;;;;;;31.40;19.60;;;;;;;;;;5089599;28;20048;-63
2022/03/29 02:03:19;;;;;;;31.47;19.20;;;;;;;;;;5088963;28;20044;-63
2022/03/29 02:05:45;;;;;;;28.90;18.47;;;;;;;;;;5089264;28;20157;-63
2022/03/29 02:08:11;;;;;;;30.10;18.73;;;;;;;;;;5089120;28;20044;-63
2022/03/29 02:10:38;;;;;;;28.43;17.67;;;;;;;;;;5089098;28;20128;-63
2022/03/29 02:13:04;;;;;;;27.97;17.93;;;;;;;;;;5088905;28;20044;-63
2022/03/29 02:15:30;;;;;;;27.53;18.50;;;;;;;;;;5088826;28;20051;-63
2022/03/29 02:17:57;;;;;;;29.80;19.23;;;;;;;;;;5089244;28;20040;-63
2022/03/29 02:20:24;;;;;;;28.53;18.83;;;;;;;;;;5088928;28;20527;-63
2022/03/29 02:22:50;;;;;;;33.10;19.10;;;;;;;;;;5088639;28;20044;-63
2022/03/29 02:25:16;;;;;;;33.17;20.40;;;;;;;;;;5088805;28;20058;-63
2022/03/29 02:27:43;;;;;;;31.23;19.53;;;;;;;;;;5089065;28;20043;-63
2022/03/29 02:30:11;;;;;;;31.17;18.57;;;;;;;;;;5088664;28;20082;-63
2022/03/29 02:32:37;;;;;;;29.87;19.30;;;;;;;;;;5088759;28;20048;-63
2022/03/29 02:35:03;;;;;;;28.77;19.40;;;;;;;;;;5088829;28;20052;-63
2022/03/29 02:37:29;;;;;;;31.03;18.20;;;;;;;;;;5088467;28;20211;-63
2022/03/29 02:39:55;;;;;;;30.23;20.23;;;;;;;;;;5088985;28;20705;-63
2022/03/29 02:42:21;;;;;;;32.17;19.67;;;;;;;;;;5089646;28;20140;-63
2022/03/29 02:44:48;;;;;;;28.37;18.23;;;;;;;;;;5096783;28;20216;-63
2022/03/29 02:47:14;;;;;;;29.53;19.40;;;;;;;;;;5088731;28;20055;-63
2022/03/29 02:49:40;;;;;;;27.57;18.60;;;;;;;;;;5088655;28;20040;-63
2022/03/29 02:52:06;;;;;;;29.83;18.83;;;;;;;;;;5088051;28;20044;-63
2022/03/29 02:54:32;;;;;;;27.73;19.00;;;;;;;;;;5088356;28;20070;-63
2022/03/29 02:56:58;;;;;;;32.33;19.23;;;;;;;;;;5088311;28;20506;-63
2022/03/29 02:59:24;;;;;;;30.83;19.77;;;;;;;;;;5106988;28;20043;-63
2022/03/29 03:01:50;;;;;;;29.70;20.07;;;;;;;;;;5108800;28;20051;-63
2022/03/29 03:04:16;;;;;;;31.93;20.83;;;;;;;;;;5109057;28;20108;-63
2022/03/29 03:06:42;;;;;;;32.17;20.70;;;;;;;;;;5098569;28;20040;-63
2022/03/29 03:09:09;;;;;;;33.57;20.93;;;;;;;;;;5088485;28;20048;-63
2022/03/29 03:11:36;;;;;;;33.27;21.47;;;;;;;;;;5088413;28;20689;-63
2022/03/29 03:14:02;;;;;;;30.43;21.20;;;;;;;;;;5088438;28;20051;-64
2022/03/29 03:16:28;;;;;;;32.97;20.57;;;;;;;;;;5088291;28;20044;-63
2022/03/29 03:18:54;;;;;;;36.03;21.30;;;;;;;;;;5087866;28;20563;-63
2022/03/29 03:21:20;;;;;;;31.40;21.40;;;;;;;;;;5091651;28;20056;-63
2022/03/29 03:23:46;;;;;;;31.33;20.67;;;;;;;;;;5110536;28;20413;-63
2022/03/29 03:26:12;;;;;;;34.43;22.40;;;;;;;;;;5112859;28;20047;-63
2022/03/29 03:28:38;;;;;;;29.93;20.83;;;;;;;;;;5098773;28;20040;-63
2022/03/29 03:31:04;;;;;;;36.23;21.33;;;;;;;;;;5092398;28;20090;-63
2022/03/29 03:33:30;;;;;;;34.07;21.90;;;;;;;;;;5092571;28;20040;-63
2022/03/29 03:35:56;;;;;;;31.33;20.67;;;;;;;;;;5091914;28;20048;-63
2022/03/29 03:38:22;;;;;;;32.93;21.50;;;;;;;;;;5091653;28;20051;-64
2022/03/29 03:40:48;;;;;;;33.07;21.33;;;;;;;;;;5091898;28;20421;-64
2022/03/29 03:43:14;;;;;;;32.67;19.80;;;;;;;;;;5086101;28;20517;-63
2022/03/29 03:45:40;;;;;;;38.33;19.27;;;;;;;;;;5112203;28;20670;-63
2022/03/29 03:48:06;;;;;;;33.27;19.73;;;;;;;;;;5094360;28;20039;-63
2022/03/29 03:50:32;;;;;;;26.43;18.23;;;;;;;;;;5104496;28;20413;-64
2022/03/29 03:53:00;;;;;;;29.63;19.23;;;;;;;;;;5073679;28;20127;-63
2022/03/29 03:55:26;;;;;;;32.77;18.70;;;;;;;;;;5091949;28;20543;-63
2022/03/29 03:57:52;;;;;;;33.27;18.83;;;;;;;;;;5091956;28;20947;-63
2022/03/29 04:00:21;;;;;;;29.60;18.80;;;;;;;;;;5091693;28;20163;-63
2022/03/29 04:02:50;;;;;;;31.00;18.73;;;;;;;;;;5093422;28;20048;-63
2022/03/29 04:05:16;;;;;;;31.13;19.77;;;;;;;;;;5092001;28;20055;-63
2022/03/29 04:07:43;;;;;;;33.90;20.50;;;;;;;;;;5092064;28;20040;-63
2022/03/29 04:10:10;;;;;;;30.37;19.67;;;;;;;;;;5091306;28;20051;-63
2022/03/29 04:12:36;;;;;;;33.43;19.50;;;;;;;;;;5091773;28;20036;-63
2022/03/29 04:15:03;;;;;;;31.57;19.77;;;;;;;;;;5098264;28;20044;-63
2022/03/29 04:17:29;;;;;;;33.37;19.63;;;;;;;;;;5100198;28;20048;-63
2022/03/29 04:19:55;;;;;;;33.10;20.10;;;;;;;;;;5095562;28;20134;-63
2022/03/29 04:22:21;;;;;;;31.10;18.97;;;;;;;;;;5096118;28;20503;-64
2022/03/29 04:24:47;;;;;;;29.83;18.97;;;;;;;;;;5098550;28;20056;-64
2022/03/29 04:27:13;;;;;;;31.07;20.30;;;;;;;;;;5097747;28;20070;-63
2022/03/29 04:29:39;;;;;;;31.80;19.17;;;;;;;;;;5097486;28;20032;-63
2022/03/29 04:32:05;;;;;;;32.10;18.97;;;;;;;;;;5097397;28;20127;-63
2022/03/29 04:34:32;;;;;;;34.93;20.53;;;;;;;;;;5090465;28;20131;-63
2022/03/29 04:36:59;;;;;;;31.27;19.43;;;;;;;;;;5090494;28;20097;-63
2022/03/29 04:39:25;;;;;;;31.20;20.47;;;;;;;;;;5090261;28;20086;-63
2022/03/29 04:41:51;;;;;;;36.03;20.80;;;;;;;;;;5089744;28;20422;-63
2022/03/29 04:44:17;;;;;;;34.07;20.37;;;;;;;;;;5090091;28;20044;-63
2022/03/29 04:46:43;;;;;;;41.67;20.53;;;;;;;;;;5090194;28;20517;-63
2022/03/29 04:49:09;;;;;;;32.80;19.37;;;;;;;;;;5071850;28;20044;-63
2022/03/29 04:51:36;;;;;;;38.10;20.30;;;;;;;;;;5090016;28;20051;-63
2022/03/29 04:54:02;;;;;;;35.07;19.63;;;;;;;;;;5089715;28;20051;-63
2022/03/29 04:56:29;;;;;;;35.47;21.10;;;;;;;;;;5089974;28;20075;-63
2022/03/29 04:58:55;;;;;;;34.13;21.53;;;;;;;;;;5089543;28;20067;-63
2022/03/29 05:01:21;;;;;;;29.57;18.93;;;;;;;;;;5094327;28;20044;-63
2022/03/29 05:03:47;;;;;;;34.83;20.17;;;;;;;;;;5090129;28;20104;-63
2022/03/29 05:06:13;;;;;;;37.40;20.73;;;;;;;;;;5090619;28;20390;-64
2022/03/29 05:08:39;;;;;;;32.40;21.17;;;;;;;;;;5091553;28;20048;-63
2022/03/29 05:11:05;;;;;;;43.10;20.57;;;;;;;;;;5097372;28;20410;-63
2022/03/29 05:13:31;;;;;;;33.87;21.60;;;;;;;;;;5089490;28;20097;-63
2022/03/29 05:15:57;;;;;;;35.67;21.60;;;;;;;;;;5092804;28;20075;-63
2022/03/29 05:18:23;;;;;;;34.23;21.57;;;;;;;;;;5103904;28;20055;-63
2022/03/29 05:20:49;;;;;;;37.13;21.53;;;;;;;;;;5110591;28;20805;-63
2022/03/29 05:23:18;;;;;;;39.73;22.00;;;;;;;;;;5071450;28;20387;-63
2022/03/29 05:25:44;;;;;;;35.87;20.67;;;;;;;;;;5089868;28;20332;-63
2022/03/29 05:28:10;;;;;;;35.67;20.87;;;;;;;;;;5088594;28;20046;-63
2022/03/29 05:30:36;;;;;;;40.10;21.37;;;;;;;;;;5098621;28;20383;-64
2022/03/29 05:33:03;;;;;;;37.83;22.27;;;;;;;;;;5105426;28;20043;-63
2022/03/29 05:35:31;;;;;;;37.23;21.43;;;;;;;;;;5108004;28;20189;-64
2022/03/29 05:37:58;;;;;;;41.27;22.20;;;;;;;;;;5089627;28;20052;-64
2022/03/29 05:40:25;;;;;;;41.40;21.97;;;;;;;;;;5099249;28;20048;-64
2022/03/29 05:42:52;;;;;;;33.23;19.77;;;;;;;;;;5109634;28;20051;-63
2022/03/29 05:45:18;;;;;;;32.27;21.60;;;;;;;;;;5096756;28;20429;-63
2022/03/29 05:50:29;;;;;;;34.07;20.50;;;;;;;;;;5100450;28;20470;-64
2022/03/29 05:52:56;;;;;;;32.37;19.67;;;;;;;;;;5071952;28;20134;-63
2022/03/29 05:55:22;;;;;;;35.20;21.87;;;;;;;;;;5093551;28;20040;-64
2022/03/29 05:57:49;;;;;;;36.57;22.57;;;;;;;;;;5097011;28;20035;-64
2022/03/29 06:00:16;;;;;;;34.13;20.60;;;;;;;;;;5097069;28;20051;-63
2022/03/29 06:02:42;;;;;;;38.80;21.30;;;;;;;;;;5088989;28;20561;-63
2022/03/29 06:05:09;;;;;;;35.90;21.27;;;;;;;;;;5088142;28;20063;-63
2022/03/29 06:07:35;;;;;;;39.83;22.33;;;;;;;;;;5089991;28;20055;-64
2022/03/29 06:10:02;;;;;;;39.47;22.47;;;;;;;;;;5089284;28;20048;-63
2022/03/29 06:12:28;;;;;;;35.57;22.10;;;;;;;;;;5070739;28;20048;-64
2022/03/29 06:14:54;;;;;;;36.07;22.87;;;;;;;;;;5089124;28;20044;-64
2022/03/29 06:17:20;;;;;;;39.07;22.73;;;;;;;;;;5100679;28;20051;-64
2022/03/29 06:19:46;;;;;;;39.70;21.70;;;;;;;;;;5108951;28;20047;-64
2022/03/29 06:22:12;;;;;;;37.20;21.57;;;;;;;;;;5093564;28;20035;-64
2022/03/29 06:24:38;;;;;;;35.53;21.60;;;;;;;;;;5109330;28;20052;-64
2022/03/29 06:27:05;;;;;;;33.07;21.37;;;;;;;;;;5108044;28;20039;-64
2022/03/29 06:29:31;;;;;;;36.47;21.83;;;;;;;;;;5108804;28;20417;-64
2022/03/29 06:31:59;;;;;;;39.00;21.57;;;;;;;;;;5107522;28;20047;-64
2022/03/29 06:34:25;;;;;;;36.37;20.90;;;;;;;;;;5108334;28;20059;-64
2022/03/29 06:36:51;;;;;;;35.90;20.73;;;;;;;;;;5103581;28;20123;-64
2022/03/29 06:39:17;;;;;;;35.10;19.63;;;;;;;;;;5088311;28;20405;-64
2022/03/29 06:41:43;;;;;;;34.73;21.90;;;;;;;;;;5087363;28;20052;-64
2022/03/29 06:44:10;;;;;;;35.03;21.07;;;;;;;;;;5088450;28;20048;-63
2022/03/29 06:46:36;;;;;;;39.33;23.47;;;;;;;;;;5088157;28;20055;-64
2022/03/29 06:49:03;;;;;;;42.87;23.97;;;;;;;;;;5087988;28;20450;-64
2022/03/29 06:51:39;;;;;;;42.57;25.30;;;;;;;;;;5070394;28;20081;-64
2022/03/29 06:54:05;;;;;;;34.73;22.97;;;;;;;;;;5087838;28;20052;-64
2022/03/29 06:56:31;;;;;;;43.00;22.13;;;;;;;;;;5069070;28;20050;-64
2022/03/29 06:59:00;;;;;;;35.70;21.53;;;;;;;;;;5088068;28;20048;-64
2022/03/29 07:01:26;;;;;;;43.80;21.93;;;;;;;;;;5087691;28;20058;-64
2022/03/29 07:03:52;;;;;;;38.73;21.50;;;;;;;;;;5088092;28;20044;-64
2022/03/29 07:06:18;;;;;;;37.23;21.90;;;;;;;;;;5087776;28;20444;-64
2022/03/29 07:11:29;;;;;;;35.30;21.63;;;;;;;;;;5087912;28;20076;-64
2022/03/29 07:13:55;;;;;;;36.73;21.20;;;;;;;;;;5087320;28;20051;-64
2022/03/29 07:16:21;;;;;;;35.80;21.60;;;;;;;;;;5087715;28;20494;-64
2022/03/29 07:18:48;;;;;;;35.37;20.93;;;;;;;;;;5087279;28;20048;-64
2022/03/29 07:21:14;;;;;;;34.70;20.27;;;;;;;;;;5087759;28;20048;-64
2022/03/29 07:23:40;;;;;;;40.27;21.40;;;;;;;;;;5087443;28;20047;-64
2022/03/29 07:26:06;;;;;;;36.30;21.77;;;;;;;;;;5087797;28;20506;-64
2022/03/29 07:28:32;;;;;;;32.57;19.60;;;;;;;;;;5087394;28;20055;-64
2022/03/29 07:30:58;;;;;;;33.47;20.33;;;;;;;;;;5068837;28;20044;-64
2022/03/29 07:33:24;;;;;;;37.53;23.97;;;;;;;;;;5087675;28;20506;-64
2022/03/29 07:35:50;;;;;;;36.33;20.70;;;;;;;;;;5087430;28;20521;-64
2022/03/29 07:38:16;;;;;;;38.03;21.63;;;;;;;;;;5069585;28;20044;-64
2022/03/29 07:40:43;;;;;;;38.97;22.10;;;;;;;;;;5087046;28;20032;-64
2022/03/29 07:43:11;;;;;;;40.40;24.63;;;;;;;;;;5087909;28;20142;-64
2022/03/29 07:45:37;;;;;;;37.93;23.47;;;;;;;;;;5087114;28;20044;-64
2022/03/29 07:48:03;;;;;;;39.83;23.17;;;;;;;;;;5087611;28;20046;-64
2022/03/29 07:50:30;;;;;;;37.70;21.43;;;;;;;;;;5087318;28;20336;-64
2022/03/29 07:52:59;;;;;;;35.93;23.30;;;;;;;;;;5087019;28;20085;-64
2022/03/29 07:55:25;;;;;;;39.27;23.13;;;;;;;;;;5069130;28;20514;-64
2022/03/29 07:57:51;;;;;;;37.73;22.87;;;;;;;;;;5087500;28;20448;-64
2022/03/29 08:00:33;;;;;;;39.70;23.00;;;;;;;;;;5086506;28;20130;-64
2022/03/29 08:03:03;;;;;;;41.30;22.90;;;;;;;;;;5087545;28;20056;-65
2022/03/29 08:05:30;;;;;;;36.73;23.20;;;;;;;;;;5088000;28;20044;-64
2022/03/29 08:07:59;;;;;;;38.30;22.80;;;;;;;;;;5089596;28;20473;-64
2022/03/29 08:10:27;;;;;;;35.27;21.37;;;;;;;;;;5091187;28;20036;-64
2022/03/29 08:12:54;;;;;;;33.80;21.73;;;;;;;;;;5090656;28;20043;-64
2022/03/29 08:15:20;;;;;;;33.37;21.13;;;;;;;;;;5091196;28;20588;-64
2022/03/29 08:17:48;;;;;;;34.00;21.30;;;;;;;;;;5090736;28;20052;-64
2022/03/29 08:20:14;;;;;;;33.27;20.40;;;;;;;;;;5090563;28;20055;-64
2022/03/29 08:22:44;;;;;;;33.77;19.90;;;;;;;;;;5090671;28;20054;-64
2022/03/29 08:25:11;;;;;;;34.23;20.67;;;;;;;;;;5090532;28;20043;-64
2022/03/29 08:27:37;;;;;;;32.87;20.50;;;;;;;;;;5104058;28;20050;-64
2022/03/29 08:30:04;;;;;;;34.63;19.60;;;;;;;;;;5110517;28;20043;-64
2022/03/29 08:32:31;;;;;;;33.17;20.40;;;;;;;;;;5111002;28;20051;-65
2022/03/29 08:34:57;;;;;;;34.27;19.70;;;;;;;;;;5111248;28;20066;-65
2022/03/29 08:37:23;;;;;;;31.47;19.23;;;;;;;;;;5110811;28;20051;-65
2022/03/29 08:39:49;;;;;;;34.27;19.70;;;;;;;;;;5110591;28;20420;-65
2022/03/29 08:42:16;;;;;;;30.73;20.67;;;;;;;;;;5097036;28;20044;-63
2022/03/29 08:44:43;;;;;;;34.97;20.47;;;;;;;;;;5090238;28;20040;-63
2022/03/29 08:47:10;;;;;;;34.43;19.03;;;;;;;;;;5089863;28;20072;-63
2022/03/29 08:49:36;;;;;;;36.27;20.63;;;;;;;;;;5090322;28;20113;-63
2022/03/29 08:52:03;;;;;;;30.70;19.47;;;;;;;;;;5089648;28;20044;-63
2022/03/29 08:54:29;;;;;;;31.60;19.87;;;;;;;;;;5090113;28;20036;-63
2022/03/29 08:56:55;;;;;;;33.03;19.00;;;;;;;;;;5101371;28;20047;-63
2022/03/29 08:59:21;;;;;;;32.13;18.47;;;;;;;;;;5110596;28;20134;-63
2022/03/29 09:01:47;;;;;;;32.30;19.10;;;;;;;;;;5103489;28;20148;-63
2022/03/29 09:04:15;;;;;;;28.50;18.03;;;;;;;;;;5090009;28;20532;-64
2022/03/29 09:06:54;;;;;;;26.33;18.07;;;;;;;;;;5089733;28;20044;-64
2022/03/29 09:09:24;;;;;;;34.83;17.63;;;;;;;;;;5089766;28;20418;-65
2022/03/29 09:11:53;;;;;;;27.07;17.80;;;;;;;;;;5089915;28;20051;-64
2022/03/29 09:14:20;;;;;;;32.27;17.73;;;;;;;;;;5089409;28;20528;-64
2022/03/29 09:16:46;;;;;;;34.80;19.23;;;;;;;;;;5106330;28;20630;-64
2022/03/29 09:19:12;;;;;;;31.93;18.87;;;;;;;;;;5109400;28;20040;-64
2022/03/29 09:21:42;;;;;;;29.87;20.10;;;;;;;;;;5109563;28;20043;-64
2022/03/29 09:24:14;;;;;;;31.13;19.80;;;;;;;;;;5109926;28;20085;-64
2022/03/29 09:26:41;;;;;;;36.60;20.40;;;;;;;;;;5109507;28;20055;-64
2022/03/29 09:29:13;;;;;;;30.60;18.47;;;;;;;;;;5109733;28;20123;-64
2022/03/29 09:31:39;;;;;;;29.90;19.57;;;;;;;;;;5090162;28;20165;-65
2022/03/29 09:34:24;;;;;;;28.60;17.90;;;;;;;;;;5089487;28;20513;-65
2022/03/29 09:36:51;;;;;;;31.07;19.07;;;;;;;;;;5089272;28;20189;-64
2022/03/29 09:39:36;;;;;;;31.13;19.73;;;;;;;;;;5089235;28;20055;-64
2022/03/29 09:42:03;;;;;;;30.67;18.20;;;;;;;;;;5088278;28;20498;-64
2022/03/29 09:44:37;;;;;;;30.70;19.33;;;;;;;;;;5091855;28;20471;-64
2022/03/29 09:47:04;;;;;;;34.00;19.13;;;;;;;;;;5109119;28;20078;-64
2022/03/29 09:49:31;;;;;;;29.37;19.13;;;;;;;;;;5109456;28;20520;-65
2022/03/29 09:52:10;;;;;;;25.87;17.93;;;;;;;;;;5109470;28;20570;-65
2022/03/29 09:54:37;;;;;;;27.97;16.90;;;;;;;;;;5109541;28;20126;-65
2022/03/29 09:57:04;;;;;;;27.27;18.77;;;;;;;;;;5108501;28;20039;-65
2022/03/29 09:59:31;;;;;;;27.57;17.73;;;;;;;;;;5104178;28;20434;-65
2022/03/29 10:01:58;;;;;;;29.70;17.30;;;;;;;;;;5070624;28;20073;-65
2022/03/29 10:04:25;;;;;;;30.60;19.50;;;;;;;;;;5108886;28;20096;-65
2022/03/29 10:06:52;;;;;;;27.70;17.67;;;;;;;;;;5108707;28;20044;-65
2022/03/29 10:09:26;;;;;;;29.37;18.77;;;;;;;;;;5091156;28;20383;-65
2022/03/29 10:11:55;;;;;;;34.47;18.47;;;;;;;;;;5109037;28;20047;-65
2022/03/29 10:14:22;;;;;;;24.50;16.73;;;;;;;;;;5086389;28;20048;-65
2022/03/29 10:16:50;;;;;;;31.47;16.93;;;;;;;;;;5088521;28;20425;-65
2022/03/29 10:19:17;;;;;;;28.20;18.07;;;;;;;;;;5088198;28;20060;-65
2022/03/29 10:21:45;;;;;;;26.03;16.90;;;;;;;;;;5088309;28;20395;-65
2022/03/29 10:24:13;;;;;;;20.50;15.97;;;;;;;;;;5088511;28;20044;-65
2022/03/29 10:26:40;;;;;;;28.60;16.63;;;;;;;;;;5088243;28;20051;-65
2022/03/29 10:29:07;;;;;;;25.83;16.97;;;;;;;;;;5087692;28;20044;-65
2022/03/29 10:31:36;;;;;;;27.37;16.90;;;;;;;;;;5087315;28;20494;-65
2022/03/29 10:34:16;;;;;;;30.70;15.37;;;;;;;;;;5088230;28;20405;-65
2022/03/29 10:37:01;;;;;;;29.50;17.30;;;;;;;;;;5088277;28;20044;-65
2022/03/29 10:39:53;;;;;;;28.77;16.90;;;;;;;;;;5069673;28;20444;-65
2022/03/29 10:42:32;;;;;;;27.23;15.37;;;;;;;;;;5065901;28;20121;-65
2022/03/29 10:45:03;;;;;;;26.87;15.40;;;;;;;;;;5088250;28;20052;-65
2022/03/29 10:47:29;;;;;;;29.77;16.17;;;;;;;;;;5070297;28;20048;-65
2022/03/29 10:49:56;;;;;;;34.10;16.50;;;;;;;;;;5087922;28;20168;-65
2022/03/29 10:52:22;;;;;;;23.73;14.40;;;;;;;;;;5087723;28;20040;-65
2022/03/29 10:54:48;;;;;;;22.90;15.00;;;;;;;;;;5088130;28;20044;-65
2022/03/29 10:57:25;;;;;;;27.10;14.40;;;;;;;;;;5096837;28;20074;-65
2022/03/29 10:59:58;;;;;;;25.70;13.73;;;;;;;;;;5108150;28;20067;-65
2022/03/29 11:02:25;;;;;;;27.90;14.13;;;;;;;;;;5089616;28;20064;-66
2022/03/29 11:05:10;;;;;;;24.40;14.97;;;;;;;;;;5108379;28;20053;-65
2022/03/29 11:07:37;;;;;;;23.03;13.40;;;;;;;;;;5108496;28;20040;-65
2022/03/29 11:10:35;;;;;;;28.97;13.93;;;;;;;;;;5108386;28;20047;-65
2022/03/29 11:13:01;;;;;;;26.00;13.80;;;;;;;;;;5042022;28;20124;-65
2022/03/29 11:15:32;;;;;;;25.50;14.10;;;;;;;;;;5088275;28;20139;-65
2022/03/29 11:17:58;;;;;;;25.70;15.30;;;;;;;;;;5087752;28;20059;-65
2022/03/29 11:20:32;;;;;;;23.43;13.87;;;;;;;;;;5087716;28;20044;-65
2022/03/29 11:23:08;;;;;;;26.00;14.07;;;;;;;;;;5087845;28;20059;-65
2022/03/29 11:25:42;;;;;;;24.00;13.83;;;;;;;;;;5087357;28;20083;-65
2022/03/29 11:28:09;;;;;;;20.20;13.23;;;;;;;;;;5087864;28;20044;-65
2022/03/29 11:30:36;;;;;;;22.47;14.23;;;;;;;;;;5088107;28;20054;-65
2022/03/29 11:33:03;;;;;;;30.37;15.03;;;;;;;;;;5087145;28;20166;-65
2022/03/29 11:35:29;;;;;;;26.27;15.37;;;;;;;;;;5087589;28;20146;-65
2022/03/29 11:37:55;;;;;;;24.93;14.37;;;;;;;;;;5087591;28;20090;-65
2022/03/29 11:40:21;;;;;;;26.50;16.20;;;;;;;;;;5087508;28;20083;-66
2022/03/29 11:42:59;;;;;;;26.53;14.10;;;;;;;;;;5072897;28;20044;-66
2022/03/29 11:45:27;;;;;;;22.80;14.60;;;;;;;;;;5091227;28;20040;-66
2022/03/29 11:47:53;;;;;;;24.93;15.40;;;;;;;;;;5090890;28;20039;-66
2022/03/29 11:50:33;;;;;;;26.30;14.40;;;;;;;;;;5091569;28;20052;-66
2022/03/29 11:52:59;;;;;;;28.47;14.87;;;;;;;;;;5091450;28;20592;-66
2022/03/29 11:55:25;;;;;;;23.70;15.77;;;;;;;;;;5090664;28;20050;-66
2022/03/29 11:57:52;;;;;;;27.13;14.53;;;;;;;;;;5091246;28;20093;-66
2022/03/29 12:00:25;;;;;;;22.83;14.40;;;;;;;;;;5091263;28;20048;-66
2022/03/29 12:02:52;;;;;;;23.73;16.10;;;;;;;;;;5091079;28;20061;-66
2022/03/29 12:05:25;;;;;;;21.43;14.10;;;;;;;;;;5091160;28;20080;-66
2022/03/29 12:07:51;;;;;;;;;;;;;;;;;;5091001;28;20044;-66
2022/03/29 12:10:27;;;;;;;19.63;13.83;;;;;;;;;;5073140;28;20378;-66
2022/03/29 12:12:54;;;;;;;24.40;15.33;;;;;;;;;;5091339;28;20059;-66
2022/03/29 12:15:21;;;;;;;23.97;14.23;;;;;;;;;;5111515;28;20142;-63
2022/03/29 12:20:42;;;;;;;23.13;14.90;;;;;;;;;;5110804;28;20079;-63
2022/03/29 12:23:19;;;;;;;24.63;14.80;;;;;;;;;;5109121;28;20126;-64
2022/03/29 12:25:45;;;;;;;26.40;14.50;;;;;;;;;;5090879;28;20046;-63
2022/03/29 12:28:13;;;;;;;34.20;14.70;;;;;;;;;;5090711;28;20040;-66
2022/03/29 12:30:39;;;;;;;24.63;14.40;;;;;;;;;;5090900;28;20171;-66
2022/03/29 12:33:05;;;;;;;22.90;14.43;;;;;;;;;;5090046;28;20767;-63
2022/03/29 12:35:33;;;;;;;23.37;14.30;;;;;;;;;;5090510;28;20056;-66
2022/03/29 12:38:06;;;;;;;23.13;14.37;;;;;;;;;;5092871;28;21329;-66
2022/03/29 12:40:33;;;;;;;22.10;14.93;;;;;;;;;;5110588;28;20035;-66
2022/03/29 12:43:06;;;;;;;17.73;13.43;;;;;;;;;;5110695;28;20049;-66
2022/03/29 12:45:33;;;;;;;20.27;13.53;;;;;;;;;;5110374;28;20677;-66
2022/03/29 12:48:00;;;;;;;22.00;14.13;;;;;;;;;;5110467;28;20043;-66
2022/03/29 12:50:27;;;;;;;24.42;13.50;;;;;;;;;;5110663;28;20520;-66
2022/03/29 12:52:53;;;;;;;18.23;13.13;;;;;;;;;;5090944;28;20048;-66
2022/03/29 12:55:20;;;;;;;15.43;12.73;;;;;;;;;;5090197;28;20332;-66
2022/03/29 12:57:46;;;;;;;21.63;14.57;;;;;;;;;;5090079;28;20455;-66
2022/03/29 13:00:14;;;;;;;23.92;14.35;;;;;;;;;;5089799;28;20043;-66
2022/03/29 13:02:44;;;;;;;19.92;14.90;;;;;;;;;;5090181;28;20055;-66
2022/03/29 13:05:11;;;;;;;19.15;13.00;;;;;;;;;;5089945;28;20055;-66
2022/03/29 13:07:50;;;;;;;18.38;12.77;;;;;;;;;;5089310;28;20040;-65
2022/03/29 13:10:16;;;;;;;20.33;14.55;;;;;;;;;;5089964;28;20046;-65
2022/03/29 13:13:08;;;;;;;16.83;13.23;;;;;;;;;;5089839;28;20067;-66
2022/03/29 13:15:37;;;;;;;20.85;14.35;;;;;;;;;;5041394;28;20461;-66
2022/03/29 13:18:03;;;;;;;22.95;13.60;;;;;;;;;;5089770;28;20174;-66
2022/03/29 13:20:29;;;;;;;20.75;14.45;;;;;;;;;;5089152;28;20521;-65
2022/03/29 13:22:55;;;;;;;21.08;14.35;;;;;;;;;;5089460;28;20438;-65
2022/03/29 13:25:34;;;;;;;22.73;13.93;;;;;;;;;;5089740;28;20473;-66
2022/03/29 13:28:00;;;;;;;22.33;13.65;;;;;;;;;;5089569;28;20171;-66
2022/03/29 13:30:29;;;;;;;22.97;13.40;;;;;;;;;;5089431;28;20047;-65
2022/03/29 13:32:55;;;;;;;20.07;14.07;;;;;;;;;;5089179;28;20055;-65
2022/03/29 13:35:21;;;;;;;24.80;14.60;;;;;;;;;;5074110;28;20044;-65
2022/03/29 13:37:47;;;;;;;23.57;13.97;;;;;;;;;;5109047;28;20134;-65
2022/03/29 13:40:13;;;;;;;22.43;13.30;;;;;;;;;;5109599;28;20043;-65
2022/03/29 13:42:39;;;;;;;21.40;13.20;;;;;;;;;;5108022;28;20043;-65
2022/03/29 13:45:05;;;;;;;18.73;12.60;;;;;;;;;;5089114;28;20094;-65
2022/03/29 13:47:34;;;;;;;22.80;12.97;;;;;;;;;;5088736;28;20085;-65
2022/03/29 13:50:00;;;;;;;18.73;13.30;;;;;;;;;;5089309;28;20383;-65
2022/03/29 13:52:29;;;;;;;21.87;12.10;;;;;;;;;;5088668;28;20426;-65
2022/03/29 13:54:55;;;;;;;20.20;11.80;;;;;;;;;;5089071;28;20044;-65
2022/03/29 13:57:21;;;;;;;20.93;13.17;;;;;;;;;;5089335;28;20068;-65
2022/03/29 13:59:47;;;;;;;21.83;11.37;;;;;;;;;;5108469;28;20451;-65
2022/03/29 14:02:13;;;;;;;18.83;11.03;;;;;;;;;;5108499;28;20039;-65
2022/03/29 14:04:39;;;;;;;21.83;10.73;;;;;;;;;;5088371;28;20052;-65
2022/03/29 14:07:05;;;;;;;24.03;10.30;;;;;;;;;;5088822;28;20054;-65
2022/03/29 14:09:32;;;;;;;22.57;12.40;;;;;;;;;;5089037;28;20685;-65
2022/03/29 14:11:58;;;;;;;22.00;12.27;;;;;;;;;;5088648;28;20044;-65
2022/03/29 14:14:24;;;;;;;18.52;10.10;;;;;;;;;;5088741;28;20044;-65
2022/03/29 14:16:50;;;;;;;24.45;10.95;;;;;;;;;;5088477;28;20521;-65
2022/03/29 14:19:16;;;;;;;17.93;11.87;;;;;;;;;;5088791;28;20050;-65
2022/03/29 14:21:42;;;;;;;19.92;11.07;;;;;;;;;;5087769;28;20408;-65
2022/03/29 14:24:08;;;;;;;17.45;11.25;;;;;;;;;;5088503;28;20524;-65
2022/03/29 14:26:34;;;;;;;20.08;10.50;;;;;;;;;;5088564;28;20040;-65
2022/03/29 14:29:00;;;;;;;20.33;10.77;;;;;;;;;;5087451;28;20059;-65
2022/03/29 14:31:27;;;;;;;19.50;11.18;;;;;;;;;;5088418;28;20044;-66